sensor_id;sensor_type;location;lat;lon;timestamp;pressure;altitude;pressure_sealevel;temperature;humidity
43553;BME280;29153;42.696;23.218;2022-09-29T02:31:03;93627.52;;;14.97;90.31
43553;BME280;29153;42.696;23.218;2022-09-29T02:33:31;93620.87;;;15.03;89.48
43553;BME280;29153;42.696;23.218;2022-09-29T02:36:17;93621.37;;;15.11;89.80
43553;BME280;29153;42.696;23.218;2022-09-29T02:42:01;93621.67;;;15.18;89.49
43553;BME280;29153;42.696;23.218;2022-09-29T02:47:15;93610.45;;;15.39;86.11
43553;BME280;29153;42.696;23.218;2022-09-29T02:58:09;93570.52;;;15.52;82.77
43553;BME280;29153;42.696;23.218;2022-09-29T03:00:32;93572.20;;;15.62;81.68
43553;BME280;29153;42.696;23.218;2022-09-29T03:02:59;93572.55;;;15.61;82.08
43553;BME280;29153;42.696;23.218;2022-09-29T03:05:32;93566.67;;;15.67;81.13
43553;BME280;29153;42.696;23.218;2022-09-29T03:07:56;93567.69;;;15.69;81.23
43553;BME280;29153;42.696;23.218;2022-09-29T03:10:24;93577.27;;;15.70;81.02
43553;BME280;29153;42.696;23.218;2022-09-29T03:12:51;93586.27;;;15.71;81.10
43553;BME280;29153;42.696;23.218;2022-09-29T03:15:19;93596.71;;;15.70;81.96
43553;BME280;29153;42.696;23.218;2022-09-29T03:17:47;93609.03;;;15.63;83.26
43553;BME280;29153;42.696;23.218;2022-09-29T03:20:14;93614.99;;;15.54;84.23
43553;BME280;29153;42.696;23.218;2022-09-29T03:22:42;93622.59;;;15.43;84.65
43553;BME280;29153;42.696;23.218;2022-09-29T03:25:11;93628.05;;;15.26;85.38
43553;BME280;29153;42.696;23.218;2022-09-29T03:27:40;93632.27;;;14.97;86.87
43553;BME280;29153;42.696;23.218;2022-09-29T03:30:10;93636.50;;;14.69;88.80
43553;BME280;29153;42.696;23.218;2022-09-29T03:32:37;93654.67;;;14.52;90.07
43553;BME280;29153;42.696;23.218;2022-09-29T03:35:07;93660.04;;;14.27;91.64
43553;BME280;29153;42.696;23.218;2022-09-29T03:37:36;93662.83;;;14.07;92.57
43553;BME280;29153;42.696;23.218;2022-09-29T03:40:04;93665.63;;;14.10;92.11
43553;BME280;29153;42.696;23.218;2022-09-29T03:42:31;93666.64;;;14.03;92.75
43553;BME280;29153;42.696;23.218;2022-09-29T03:44:59;93660.17;;;13.98;93.01
43553;BME280;29153;42.696;23.218;2022-09-29T03:47:26;93654.14;;;13.78;93.80
43553;BME280;29153;42.696;23.218;2022-09-29T03:49:54;93642.17;;;13.61;95.28
43553;BME280;29153;42.696;23.218;2022-09-29T03:52:22;93642.17;;;13.61;95.28
43553;BME280;29153;42.696;23.218;2022-09-29T03:54:49;93639.20;;;13.54;95.57
43553;BME280;29153;42.696;23.218;2022-09-29T03:57:16;93643.48;;;13.35;96.85
43553;BME280;29153;42.696;23.218;2022-09-29T03:59:44;93646.62;;;13.29;97.13
43553;BME280;29153;42.696;23.218;2022-09-29T04:02:12;93642.91;;;13.18;97.48
43553;BME280;29153;42.696;23.218;2022-09-29T04:04:39;93638.37;;;13.10;98.13
43553;BME280;29153;42.696;23.218;2022-09-29T04:07:07;93642.37;;;12.91;98.32
43553;BME280;29153;42.696;23.218;2022-09-29T04:09:34;93639.66;;;12.73;98.87
43553;BME280;29153;42.696;23.218;2022-09-29T04:12:02;93635.13;;;12.74;98.36
43553;BME280;29153;42.696;23.218;2022-09-29T04:14:30;93637.97;;;12.58;98.81
43553;BME280;29153;42.696;23.218;2022-09-29T04:16:57;93635.48;;;12.61;99.12
43553;BME280;29153;42.696;23.218;2022-09-29T04:19:24;93627.73;;;12.43;99.70
43553;BME280;29153;42.696;23.218;2022-09-29T04:21:52;93629.70;;;12.28;100.00
43553;BME280;29153;42.696;23.218;2022-09-29T04:24:19;93625.45;;;12.19;100.00
43553;BME280;29153;42.696;23.218;2022-09-29T04:26:47;93609.28;;;12.07;100.00
43553;BME280;29153;42.696;23.218;2022-09-29T04:29:14;93618.52;;;12.09;100.00
43553;BME280;29153;42.696;23.218;2022-09-29T04:31:42;93615.60;;;11.89;100.00
43553;BME280;29153;42.696;23.218;2022-09-29T04:34:09;93617.89;;;11.93;100.00
43553;BME280;29153;42.696;23.218;2022-09-29T04:36:36;93617.89;;;11.93;100.00
43553;BME280;29153;42.696;23.218;2022-09-29T04:39:04;93622.60;;;11.84;100.00
43553;BME280;29153;42.696;23.218;2022-09-29T04:41:32;93613.55;;;11.74;100.00
43553;BME280;29153;42.696;23.218;2022-09-29T04:44:01;93622.72;;;11.79;100.00
43553;BME280;29153;42.696;23.218;2022-09-29T04:46:28;93613.68;;;11.80;100.00
43553;BME280;29153;42.696;23.218;2022-09-29T04:48:56;93620.23;;;11.83;100.00
43553;BME280;29153;42.696;23.218;2022-09-29T04:51:23;93624.64;;;11.88;100.00
43553;BME280;29153;42.696;23.218;2022-09-29T04:53:51;93630.73;;;11.88;100.00
43553;BME280;29153;42.696;23.218;2022-09-29T04:56:18;93622.41;;;11.92;100.00
43553;BME280;29153;42.696;23.218;2022-09-29T04:58:46;93620.72;;;11.96;100.00
43553;BME280;29153;42.696;23.218;2022-09-29T05:01:13;93629.34;;;12.02;100.00
43553;BME280;29153;42.696;23.218;2022-09-29T05:03:41;93620.52;;;12.04;100.00
43553;BME280;29153;42.696;23.218;2022-09-29T05:06:09;93628.48;;;12.15;100.00
43553;BME280;29153;42.696;23.218;2022-09-29T05:08:36;93641.50;;;12.14;100.00
43553;BME280;29153;42.696;23.218;2022-09-29T05:11:06;93641.50;;;12.14;100.00
43553;BME280;29153;42.696;23.218;2022-09-29T05:13:34;93628.94;;;12.17;100.00
43553;BME280;29153;42.696;23.218;2022-09-29T05:16:02;93624.47;;;12.26;100.00
43553;BME280;29153;42.696;23.218;2022-09-29T05:18:32;93624.47;;;12.26;100.00
43553;BME280;29153;42.696;23.218;2022-09-29T05:21:06;93636.75;;;12.33;100.00
43553;BME280;29153;42.696;23.218;2022-09-29T05:23:34;93636.75;;;12.33;100.00
43553;BME280;29153;42.696;23.218;2022-09-29T05:26:08;93646.03;;;12.44;100.00
43553;BME280;29153;42.696;23.218;2022-09-29T05:28:32;93646.03;;;12.44;100.00
43553;BME280;29153;42.696;23.218;2022-09-29T05:31:05;93661.22;;;12.52;100.00
43553;BME280;29153;42.696;23.218;2022-09-29T05:33:35;93660.64;;;12.64;100.00
43553;BME280;29153;42.696;23.218;2022-09-29T05:36:07;93665.09;;;12.86;100.00
43553;BME280;29153;42.696;23.218;2022-09-29T05:38:35;93670.30;;;12.99;100.00
43553;BME280;29153;42.696;23.218;2022-09-29T05:41:07;93663.57;;;13.13;100.00
43553;BME280;29153;42.696;23.218;2022-09-29T05:43:36;93652.03;;;13.35;100.00
43553;BME280;29153;42.696;23.218;2022-09-29T05:46:05;93647.18;;;13.80;100.00
43553;BME280;29153;42.696;23.218;2022-09-29T05:48:34;93660.25;;;13.87;100.00
43553;BME280;29153;42.696;23.218;2022-09-29T05:51:09;93659.06;;;13.91;100.00
43553;BME280;29153;42.696;23.218;2022-09-29T05:53:38;93658.05;;;13.98;100.00
43553;BME280;29153;42.696;23.218;2022-09-29T05:56:12;93650.33;;;14.22;98.87
43553;BME280;29153;42.696;23.218;2022-09-29T05:58:36;93665.51;;;14.30;99.00
43553;BME280;29153;42.696;23.218;2022-09-29T06:01:04;93660.67;;;14.41;98.86
43553;BME280;29153;42.696;23.218;2022-09-29T06:03:33;93667.59;;;14.56;98.74
43553;BME280;29153;42.696;23.218;2022-09-29T06:06:06;93670.44;;;14.75;97.38
43553;BME280;29153;42.696;23.218;2022-09-29T06:08:34;93667.55;;;15.03;92.67
43553;BME280;29153;42.696;23.218;2022-09-29T06:11:04;93668.72;;;15.23;90.39
43553;BME280;29153;42.696;23.218;2022-09-29T06:13:32;93670.97;;;15.27;89.92
43553;BME280;29153;42.696;23.218;2022-09-29T06:16:00;93673.27;;;15.52;87.78
43553;BME280;29153;42.696;23.218;2022-09-29T06:18:28;93673.22;;;15.60;87.58
43553;BME280;29153;42.696;23.218;2022-09-29T06:21:04;93679.95;;;15.72;87.58
43553;BME280;29153;42.696;23.218;2022-09-29T06:23:32;93656.03;;;15.70;87.69
43553;BME280;29153;42.696;23.218;2022-09-29T06:26:02;93667.69;;;15.65;89.64
43553;BME280;29153;42.696;23.218;2022-09-29T06:28:31;93676.81;;;15.70;88.85
43553;BME280;29153;42.696;23.218;2022-09-29T06:31:09;93677.47;;;15.88;86.12
43553;BME280;29153;42.696;23.218;2022-09-29T06:33:33;93680.14;;;15.88;86.91
43553;BME280;29153;42.696;23.218;2022-09-29T06:36:20;93681.94;;;15.90;85.41
43553;BME280;29153;42.696;23.218;2022-09-29T06:39:06;93674.03;;;16.14;84.73
43553;BME280;29153;42.696;23.218;2022-09-29T06:41:34;93675.64;;;16.27;87.01
43553;BME280;29153;42.696;23.218;2022-09-29T06:44:02;93682.90;;;16.66;84.79
43553;BME280;29153;42.696;23.218;2022-09-29T06:46:30;93685.96;;;17.01;82.30
43553;BME280;29153;42.696;23.218;2022-09-29T06:48:58;93691.11;;;17.24;80.58
43553;BME280;29153;42.696;23.218;2022-09-29T06:51:26;93688.53;;;17.40;81.06
43553;BME280;29153;42.696;23.218;2022-09-29T06:53:53;93690.64;;;17.52;78.87
43553;BME280;29153;42.696;23.218;2022-09-29T06:56:21;93694.20;;;17.50;80.46
43553;BME280;29153;42.696;23.218;2022-09-29T06:58:48;93692.77;;;17.65;79.64
43553;BME280;29153;42.696;23.218;2022-09-29T07:01:15;93697.87;;;17.82;79.45
43553;BME280;29153;42.696;23.218;2022-09-29T07:03:44;93706.07;;;18.07;78.78
43553;BME280;29153;42.696;23.218;2022-09-29T07:06:11;93702.69;;;18.23;80.04
43553;BME280;29153;42.696;23.218;2022-09-29T07:08:39;93704.66;;;18.81;75.57
43553;BME280;29153;42.696;23.218;2022-09-29T07:11:07;93702.34;;;19.27;71.73
43553;BME280;29153;42.696;23.218;2022-09-29T07:13:35;93704.30;;;19.86;70.42
43553;BME280;29153;42.696;23.218;2022-09-29T07:16:06;93698.33;;;21.21;65.68
43553;BME280;29153;42.696;23.218;2022-09-29T07:18:35;93699.56;;;22.16;62.23
43553;BME280;29153;42.696;23.218;2022-09-29T07:21:09;93693.72;;;22.60;58.62
43553;BME280;29153;42.696;23.218;2022-09-29T07:23:37;93688.25;;;22.87;57.49
43553;BME280;29153;42.696;23.218;2022-09-29T07:26:06;93686.34;;;23.51;56.22
43553;BME280;29153;42.696;23.218;2022-09-29T07:28:33;93678.12;;;24.26;55.02
43553;BME280;29153;42.696;23.218;2022-09-29T07:31:04;93667.58;;;24.07;54.60
43553;BME280;29153;42.696;23.218;2022-09-29T07:33:31;93675.14;;;24.53;53.23
43553;BME280;29153;42.696;23.218;2022-09-29T07:35:59;93678.91;;;24.27;54.50
43553;BME280;29153;42.696;23.218;2022-09-29T07:38:26;93682.16;;;23.92;54.55
43553;BME280;29153;42.696;23.218;2022-09-29T07:40:58;93684.80;;;23.30;55.19
43553;BME280;29153;42.696;23.218;2022-09-29T07:43:23;93687.81;;;23.22;57.10
43553;BME280;29153;42.696;23.218;2022-09-29T07:45:51;93692.48;;;22.84;58.04
43553;BME280;29153;42.696;23.218;2022-09-29T07:48:18;93687.63;;;22.34;57.43
43553;BME280;29153;42.696;23.218;2022-09-29T07:50:46;93696.78;;;22.42;56.84
43553;BME280;29153;42.696;23.218;2022-09-29T07:53:14;93705.63;;;22.39;58.70
43553;BME280;29153;42.696;23.218;2022-09-29T07:55:41;93707.86;;;22.34;61.33
43553;BME280;29153;42.696;23.218;2022-09-29T07:58:09;93707.15;;;22.07;60.47
43553;BME280;29153;42.696;23.218;2022-09-29T08:00:36;93706.00;;;21.82;60.27
43553;BME280;29153;42.696;23.218;2022-09-29T08:03:05;93712.01;;;21.35;60.50
43553;BME280;29153;42.696;23.218;2022-09-29T08:05:36;93724.59;;;21.28;61.80
43553;BME280;29153;42.696;23.218;2022-09-29T08:08:04;93727.39;;;21.35;62.83
43553;BME280;29153;42.696;23.218;2022-09-29T08:10:32;93732.16;;;21.32;63.69
43553;BME280;29153;42.696;23.218;2022-09-29T08:13:00;93734.56;;;21.37;61.13
43553;BME280;29153;42.696;23.218;2022-09-29T08:15:28;93734.39;;;21.62;63.34
43553;BME280;29153;42.696;23.218;2022-09-29T08:17:55;93736.20;;;21.55;64.01
43553;BME280;29153;42.696;23.218;2022-09-29T08:20:23;93734.02;;;21.51;62.06
43553;BME280;29153;42.696;23.218;2022-09-29T08:22:52;93742.97;;;21.45;64.35
43553;BME280;29153;42.696;23.218;2022-09-29T08:25:21;93718.64;;;21.28;64.66
43553;BME280;29153;42.696;23.218;2022-09-29T08:27:51;93725.39;;;21.19;61.97
43553;BME280;29153;42.696;23.218;2022-09-29T08:30:18;93731.51;;;20.97;68.16
43553;BME280;29153;42.696;23.218;2022-09-29T08:32:52;93748.66;;;20.98;63.55
43553;BME280;29153;42.696;23.218;2022-09-29T08:35:20;93742.72;;;20.99;62.07
43553;BME280;29153;42.696;23.218;2022-09-29T08:37:47;93749.49;;;21.12;63.60
43553;BME280;29153;42.696;23.218;2022-09-29T08:40:15;93745.91;;;21.04;65.49
43553;BME280;29153;42.696;23.218;2022-09-29T08:45:36;93740.70;;;21.24;58.46
43553;BME280;29153;42.696;23.218;2022-09-29T08:48:12;93729.61;;;21.39;56.90
